createdAt,value
2018-09-16T00:00:21.214Z,17.03
2018-09-16T00:02:49.644Z,17.27
2018-09-16T00:05:18.262Z,17.20
2018-09-16T00:07:46.623Z,16.30
2018-09-16T00:10:15.518Z,17.52
2018-09-16T00:12:43.868Z,18.07
2018-09-16T00:15:12.141Z,17.77
2018-09-16T00:17:40.456Z,17.80
2018-09-16T00:20:08.869Z,16.90
2018-09-16T00:22:37.199Z,17.73
2018-09-16T00:25:05.610Z,17.07
2018-09-16T00:27:33.881Z,18.00
2018-09-16T00:30:03.604Z,17.67
2018-09-16T00:32:37.455Z,19.27
2018-09-16T00:35:05.915Z,19.37
2018-09-16T00:37:34.249Z,19.57
2018-09-16T00:40:03.808Z,19.10
2018-09-16T00:42:32.425Z,21.03
2018-09-16T00:45:00.706Z,19.00
2018-09-16T00:47:30.276Z,18.30
2018-09-16T00:49:58.567Z,18.50
2018-09-16T00:52:27.332Z,18.97
2018-09-16T00:54:55.631Z,20.20
2018-09-16T00:57:23.912Z,19.20
2018-09-16T00:59:52.512Z,20.27
2018-09-16T01:02:21.428Z,20.17
2018-09-16T01:04:50.004Z,19.15
2018-09-16T01:07:18.574Z,20.75
2018-09-16T01:09:46.887Z,22.10
2018-09-16T01:12:15.359Z,20.43
2018-09-16T01:14:43.661Z,18.20
2018-09-16T01:17:12.292Z,19.70
2018-09-16T01:19:41.856Z,20.02
2018-09-16T01:22:10.218Z,19.57
2018-09-16T01:24:38.800Z,19.42
2018-09-16T01:27:07.356Z,20.65
2018-09-16T01:29:35.669Z,20.37
2018-09-16T01:32:03.987Z,20.77
2018-09-16T01:34:32.542Z,21.62
2018-09-16T01:37:03.836Z,21.10
2018-09-16T01:39:32.098Z,21.13
2018-09-16T01:42:00.698Z,20.37
2018-09-16T01:44:29.269Z,22.10
2018-09-16T01:46:57.839Z,21.70
2018-09-16T01:49:26.367Z,23.52
2018-09-16T01:51:55.066Z,23.20
2018-09-16T01:54:23.350Z,21.00
2018-09-16T01:56:51.638Z,17.60
2018-09-16T01:59:20.297Z,17.77
2018-09-16T02:01:48.615Z,19.03
2018-09-16T02:04:17.071Z,19.47
2018-09-16T02:06:45.420Z,17.53
2018-09-16T02:09:13.923Z,17.67
2018-09-16T02:11:42.488Z,17.80
2018-09-16T02:14:11.085Z,18.27
2018-09-16T02:16:39.646Z,17.00
2018-09-16T02:19:08.195Z,18.42
2018-09-16T02:21:36.715Z,18.97
2018-09-16T02:24:04.992Z,20.63
2018-09-16T02:26:33.468Z,18.33
2018-09-16T02:29:01.780Z,18.90
2018-09-16T02:31:30.296Z,20.67
2018-09-16T02:33:58.567Z,20.40
2018-09-16T02:36:27.196Z,19.52
2018-09-16T02:38:55.798Z,20.23
2018-09-16T02:41:24.263Z,19.93
2018-09-16T02:43:52.607Z,19.17
2018-09-16T02:46:21.196Z,20.50
2018-09-16T02:48:49.647Z,19.80
2018-09-16T02:51:17.952Z,19.77
2018-09-16T02:53:46.220Z,20.10
2018-09-16T02:56:14.517Z,20.17
2018-09-16T02:58:43.243Z,19.03
2018-09-16T03:01:11.607Z,18.87
2018-09-16T03:03:40.072Z,21.07
2018-09-16T03:06:08.409Z,20.83
2018-09-16T03:08:36.896Z,19.33
2018-09-16T03:11:05.537Z,22.03
2018-09-16T03:13:33.891Z,20.93
2018-09-16T03:16:02.563Z,22.10
2018-09-16T03:18:31.079Z,23.30
2018-09-16T03:20:59.363Z,23.07
2018-09-16T03:23:27.899Z,23.20
2018-09-16T03:25:56.165Z,23.97
2018-09-16T03:28:24.468Z,24.67
2018-09-16T03:30:53.225Z,25.45
2018-09-16T03:33:21.538Z,24.10
2018-09-16T03:35:49.861Z,24.80
2018-09-16T03:38:18.406Z,23.37
2018-09-16T03:40:46.752Z,23.80
2018-09-16T03:43:15.332Z,20.13
2018-09-16T03:45:43.892Z,21.53
2018-09-16T03:48:12.189Z,22.07
2018-09-16T03:50:40.512Z,21.83
2018-09-16T03:53:09.644Z,22.05
2018-09-16T03:55:37.987Z,21.67
2018-09-16T03:58:06.300Z,21.50
2018-09-16T04:00:34.572Z,22.83
2018-09-16T04:03:02.860Z,25.00
2018-09-16T04:05:31.172Z,24.80
2018-09-16T04:07:59.463Z,21.03
2018-09-16T04:10:27.998Z,23.38
2018-09-16T04:12:56.303Z,22.60
2018-09-16T04:15:24.856Z,23.17
2018-09-16T04:17:53.144Z,26.70
2018-09-16T04:20:21.996Z,24.10
2018-09-16T04:22:50.276Z,24.03
2018-09-16T04:25:18.554Z,22.30
2018-09-16T04:27:47.155Z,21.97
2018-09-16T04:30:15.476Z,20.47
2018-09-16T04:32:44.271Z,21.45
2018-09-16T04:35:12.567Z,21.83
2018-09-16T04:37:41.339Z,23.60
2018-09-16T04:40:09.992Z,23.30
2018-09-16T04:42:38.831Z,22.03
2018-09-16T04:45:07.778Z,21.70
2018-09-16T04:47:36.052Z,22.43
2018-09-16T04:50:04.423Z,22.33
2018-09-16T04:52:32.790Z,23.10
2018-09-16T04:55:01.337Z,21.67
2018-09-16T04:57:29.923Z,21.77
2018-09-16T04:59:58.191Z,22.50
2018-09-16T05:02:26.783Z,22.70
2018-09-16T05:04:55.069Z,22.00
2018-09-16T05:07:23.434Z,21.30
2018-09-16T05:09:51.719Z,23.53
2018-09-16T05:12:20.299Z,23.27
2018-09-16T05:14:48.739Z,21.60
2018-09-16T05:17:17.339Z,21.97
2018-09-16T05:19:45.624Z,21.07
2018-09-16T05:22:14.227Z,22.63
2018-09-16T05:24:42.675Z,20.93
2018-09-16T05:27:11.085Z,21.83
2018-09-16T05:29:40.256Z,20.87
2018-09-16T05:32:08.595Z,21.70
2018-09-16T05:34:36.878Z,21.10
2018-09-16T05:37:06.488Z,22.80
2018-09-16T05:39:34.856Z,22.90
2018-09-16T05:42:03.152Z,23.50
2018-09-16T05:44:31.435Z,24.23
2018-09-16T05:47:00.044Z,25.30
2018-09-16T05:49:28.649Z,25.20
2018-09-16T05:51:56.999Z,23.37
2018-09-16T05:54:25.287Z,25.03
2018-09-16T05:56:53.832Z,24.63
2018-09-16T05:59:22.419Z,25.05
2018-09-16T06:01:50.954Z,23.50
2018-09-16T06:04:19.247Z,25.00
2018-09-16T06:06:47.523Z,25.70
2018-09-16T06:09:15.879Z,29.13
2018-09-16T06:11:44.511Z,29.00
2018-09-16T06:14:13.212Z,26.87
2018-09-16T06:16:41.654Z,27.37
2018-09-16T06:19:10.820Z,27.00
2018-09-16T06:21:39.303Z,26.60
2018-09-16T06:24:08.097Z,25.30
2018-09-16T06:26:36.996Z,22.93
2018-09-16T06:29:05.522Z,21.67
2018-09-16T06:31:34.238Z,20.13
2018-09-16T06:34:02.915Z,18.10
2018-09-16T06:36:31.691Z,17.57
2018-09-16T06:38:59.984Z,15.90
2018-09-16T06:41:28.404Z,14.97
2018-09-16T06:43:56.819Z,14.00
2018-09-16T06:46:25.312Z,13.10
2018-09-16T06:48:53.754Z,13.23
2018-09-16T06:51:22.062Z,13.03
2018-09-16T06:53:50.398Z,12.93
2018-09-16T06:56:19.299Z,12.33
2018-09-16T06:58:47.678Z,10.90
2018-09-16T07:01:16.051Z,11.37
2018-09-16T07:03:48.180Z,9.93
2018-09-16T07:06:17.494Z,10.20
2018-09-16T07:08:45.778Z,9.27
2018-09-16T07:11:14.661Z,9.67
2018-09-16T07:13:42.987Z,8.90
2018-09-16T07:16:11.735Z,10.08
2018-09-16T07:18:40.228Z,10.20
2018-09-16T07:21:08.890Z,11.13
2018-09-16T07:23:37.312Z,9.90
2018-09-16T07:26:06.610Z,10.00
2018-09-16T07:28:38.986Z,10.03
2018-09-16T07:31:07.569Z,10.80
2018-09-16T07:33:35.923Z,9.73
2018-09-16T07:36:04.632Z,10.47
2018-09-16T07:38:33.357Z,10.38
2018-09-16T07:41:01.919Z,9.60
2018-09-16T07:43:30.365Z,10.87
2018-09-16T07:45:58.952Z,9.40
2018-09-16T07:48:27.524Z,10.43
2018-09-16T07:50:55.930Z,11.30
2018-09-16T07:53:24.730Z,9.80
2018-09-16T07:55:53.438Z,10.20
2018-09-16T07:58:21.822Z,9.90
2018-09-16T08:00:50.308Z,10.40
2018-09-16T08:03:19.004Z,9.50
2018-09-16T08:05:47.841Z,9.33
2018-09-16T08:08:16.134Z,9.47
2018-09-16T08:10:44.700Z,8.43
2018-09-16T08:13:12.989Z,9.07
2018-09-16T08:15:41.318Z,9.10
2018-09-16T08:18:09.871Z,8.70
2018-09-16T08:20:38.608Z,8.28
2018-09-16T08:23:06.904Z,9.40
2018-09-16T08:25:35.428Z,8.73
2018-09-16T08:28:04.076Z,8.00
2018-09-16T08:30:32.761Z,9.17
2018-09-16T08:33:01.467Z,8.63
2018-09-16T08:35:29.875Z,8.20
2018-09-16T08:37:58.467Z,8.80
2018-09-16T08:40:30.336Z,8.73
2018-09-16T08:42:58.667Z,8.57
2018-09-16T08:45:27.296Z,7.50
2018-09-16T08:47:55.767Z,7.80
2018-09-16T08:50:24.081Z,9.10
2018-09-16T08:52:52.668Z,8.40
2018-09-16T08:55:21.256Z,8.60
2018-09-16T08:57:49.524Z,8.10
2018-09-16T09:00:18.911Z,8.80
2018-09-16T09:02:47.317Z,8.40
2018-09-16T09:05:15.612Z,8.27
2018-09-16T09:07:44.187Z,9.00
2018-09-16T09:10:13.363Z,10.10
2018-09-16T09:12:41.756Z,10.20
2018-09-16T09:15:10.084Z,9.00
2018-09-16T09:17:38.439Z,9.13
2018-09-16T09:20:08.263Z,9.10
2018-09-16T09:22:36.695Z,9.10
2018-09-16T09:25:05.028Z,9.23
2018-09-16T09:27:34.064Z,8.70
2018-09-16T09:30:03.040Z,10.20
2018-09-16T09:32:41.220Z,9.53
2018-09-16T09:35:09.526Z,10.53
2018-09-16T09:37:37.981Z,10.00
2018-09-16T09:40:06.930Z,9.97
2018-09-16T09:42:35.411Z,9.50
2018-09-16T09:45:03.904Z,9.00
2018-09-16T09:47:32.200Z,9.13
2018-09-16T09:50:00.476Z,8.53
2018-09-16T09:52:28.750Z,8.73
2018-09-16T09:54:57.151Z,8.47
2018-09-16T09:57:25.766Z,8.30
2018-09-16T09:59:54.023Z,8.03
2018-09-16T10:02:22.639Z,6.87
2018-09-16T10:04:51.315Z,7.33
2018-09-16T10:07:25.884Z,8.30
2018-09-16T10:09:54.516Z,7.20
2018-09-16T10:12:23.256Z,6.43
2018-09-16T10:14:51.870Z,7.27
2018-09-16T10:17:20.799Z,6.93
2018-09-16T10:19:49.252Z,7.43
2018-09-16T10:22:17.563Z,7.20
2018-09-16T10:24:46.338Z,7.30
2018-09-16T10:27:21.060Z,6.50
2018-09-16T10:29:49.608Z,6.87
2018-09-16T10:32:19.884Z,6.83
2018-09-16T10:34:48.470Z,7.37
2018-09-16T10:37:16.774Z,6.23
2018-09-16T10:39:45.757Z,7.87
2018-09-16T10:42:14.323Z,6.75
2018-09-16T10:44:42.595Z,6.80
2018-09-16T10:47:11.183Z,7.07
2018-09-16T10:49:39.729Z,8.17
2018-09-16T10:52:08.012Z,7.37
2018-09-16T10:54:36.690Z,7.67
2018-09-16T10:57:05.340Z,7.50
2018-09-16T10:59:33.963Z,8.17
2018-09-16T11:02:02.520Z,7.37
2018-09-16T11:04:31.820Z,9.00
2018-09-16T11:07:00.545Z,7.70
2018-09-16T11:09:28.874Z,9.37
2018-09-16T11:11:57.396Z,7.77
2018-09-16T11:14:25.830Z,7.20
2018-09-16T11:16:54.124Z,7.60
2018-09-16T11:19:26.236Z,7.43
2018-09-16T11:21:54.868Z,7.20
2018-09-16T11:24:23.365Z,7.43
2018-09-16T11:26:51.985Z,7.83
2018-09-16T11:29:20.516Z,7.80
2018-09-16T11:31:49.337Z,7.57
2018-09-16T11:34:19.205Z,8.10
2018-09-16T11:36:47.872Z,6.65
2018-09-16T11:39:16.658Z,7.00
2018-09-16T11:41:45.300Z,7.73
2018-09-16T11:44:13.867Z,7.35
2018-09-16T11:46:42.469Z,8.50
2018-09-16T11:49:10.831Z,7.77
2018-09-16T11:51:39.351Z,7.97
2018-09-16T11:54:07.813Z,8.30
2018-09-16T11:56:36.130Z,7.63
2018-09-16T11:59:04.486Z,7.90
2018-09-16T12:01:32.768Z,7.63
2018-09-16T12:04:01.451Z,6.57
2018-09-16T12:06:30.733Z,7.30
2018-09-16T12:08:59.119Z,7.67
2018-09-16T12:11:27.581Z,7.10
2018-09-16T12:13:55.849Z,6.60
2018-09-16T12:16:24.644Z,7.33
2018-09-16T12:18:52.942Z,7.00
2018-09-16T12:21:21.234Z,6.80
2018-09-16T12:23:49.591Z,6.67
2018-09-16T12:26:18.248Z,7.53
2018-09-16T12:28:46.608Z,7.37
2018-09-16T12:31:15.172Z,6.57
2018-09-16T12:33:43.562Z,6.30
2018-09-16T12:36:11.890Z,7.47
2018-09-16T12:38:40.960Z,7.17
2018-09-16T12:41:10.615Z,6.37
2018-09-16T12:43:39.141Z,6.90
2018-09-16T12:46:07.403Z,6.07
2018-09-16T12:48:35.976Z,6.90
2018-09-16T12:51:04.348Z,6.27
2018-09-16T12:53:33.108Z,7.17
2018-09-16T12:56:01.678Z,6.37
2018-09-16T12:58:30.239Z,6.03
2018-09-16T13:00:58.797Z,6.20
2018-09-16T13:03:27.389Z,5.90
2018-09-16T13:05:55.948Z,6.00
2018-09-16T13:08:24.218Z,5.87
2018-09-16T13:10:52.618Z,5.40
2018-09-16T13:13:21.192Z,6.27
2018-09-16T13:15:49.871Z,6.23
2018-09-16T13:18:18.467Z,9.80
2018-09-16T13:20:47.139Z,6.05
2018-09-16T13:23:15.425Z,5.50
2018-09-16T13:25:44.258Z,6.50
2018-09-16T13:28:12.848Z,5.87
2018-09-16T13:30:41.396Z,6.43
2018-09-16T13:33:09.969Z,5.07
2018-09-16T13:35:38.523Z,5.25
2018-09-16T13:38:07.452Z,5.40
2018-09-16T13:40:36.188Z,6.90
2018-09-16T13:43:09.001Z,5.30
2018-09-16T13:45:37.286Z,6.20
2018-09-16T13:48:06.266Z,5.07
2018-09-16T13:50:34.583Z,5.43
2018-09-16T13:53:19.668Z,5.85
2018-09-16T13:55:49.055Z,5.70
2018-09-16T13:58:17.395Z,5.40
2018-09-16T14:00:46.893Z,4.60
2018-09-16T14:03:15.256Z,5.77
2018-09-16T14:05:44.576Z,5.33
2018-09-16T14:08:12.896Z,5.77
2018-09-16T14:10:41.154Z,6.63
2018-09-16T14:13:09.715Z,5.25
2018-09-16T14:15:38.016Z,5.73
2018-09-16T14:18:06.297Z,5.53
2018-09-16T14:20:34.876Z,5.00
2018-09-16T14:23:03.201Z,5.50
2018-09-16T14:25:31.664Z,5.37
2018-09-16T14:28:00.176Z,4.73
2018-09-16T14:30:28.734Z,5.90
2018-09-16T14:32:57.205Z,5.00
2018-09-16T14:35:25.887Z,5.10
2018-09-16T14:37:54.347Z,5.63
2018-09-16T14:40:22.620Z,5.80
2018-09-16T14:42:50.940Z,4.77
2018-09-16T14:45:19.536Z,5.97
2018-09-16T14:47:48.084Z,5.30
2018-09-16T14:50:16.380Z,5.67
2018-09-16T14:52:44.681Z,4.73
2018-09-16T14:55:13.306Z,5.63
2018-09-16T14:57:41.655Z,5.73
2018-09-16T15:00:10.546Z,5.25
2018-09-16T15:02:38.988Z,6.00
2018-09-16T15:05:07.924Z,5.47
2018-09-16T15:07:36.301Z,5.93
2018-09-16T15:10:05.044Z,5.40
2018-09-16T15:12:33.376Z,4.60
2018-09-16T15:15:02.228Z,5.57
2018-09-16T15:17:30.700Z,5.37
2018-09-16T15:19:58.999Z,4.97
2018-09-16T15:22:27.290Z,5.10
2018-09-16T15:24:55.619Z,5.07
2018-09-16T15:27:23.933Z,6.17
2018-09-16T15:29:52.539Z,5.72
2018-09-16T15:32:20.897Z,5.17
2018-09-16T15:34:49.584Z,5.33
2018-09-16T15:37:17.936Z,5.60
2018-09-16T15:39:46.215Z,5.70
2018-09-16T15:42:15.878Z,6.14
2018-09-16T15:44:44.371Z,5.73
2018-09-16T15:47:12.655Z,6.80
2018-09-16T15:49:40.954Z,5.60
2018-09-16T15:52:09.487Z,5.93
2018-09-16T15:54:37.759Z,6.80
2018-09-16T15:57:06.063Z,6.60
2018-09-16T15:59:34.653Z,6.17
2018-09-16T16:02:03.544Z,6.40
2018-09-16T16:04:32.487Z,6.70
2018-09-16T16:07:01.059Z,6.87
2018-09-16T16:09:29.416Z,6.47
2018-09-16T16:11:58.066Z,7.10
2018-09-16T16:14:26.360Z,6.70
2018-09-16T16:16:54.844Z,7.00
2018-09-16T16:19:23.115Z,7.10
2018-09-16T16:21:51.431Z,6.30
2018-09-16T16:24:19.908Z,7.30
2018-09-16T16:26:48.319Z,6.50
2018-09-16T16:29:16.646Z,6.27
2018-09-16T16:31:45.049Z,6.83
2018-09-16T16:34:13.465Z,6.77
2018-09-16T16:36:42.355Z,7.17
2018-09-16T16:39:11.608Z,7.80
2018-09-16T16:41:40.159Z,6.87
2018-09-16T16:44:08.443Z,8.20
2018-09-16T16:46:36.728Z,7.87
2018-09-16T16:49:05.035Z,8.07
2018-09-16T16:51:33.432Z,8.90
2018-09-16T16:54:03.107Z,8.48
2018-09-16T16:56:31.980Z,8.30
2018-09-16T16:59:00.516Z,7.60
2018-09-16T17:01:28.809Z,8.03
2018-09-16T17:03:57.388Z,8.63
2018-09-16T17:06:25.705Z,7.77
2018-09-16T17:08:53.987Z,7.50
2018-09-16T17:11:22.408Z,8.47
2018-09-16T17:13:51.248Z,9.35
2018-09-16T17:16:19.538Z,9.03
2018-09-16T17:18:48.064Z,9.10
2018-09-16T17:21:16.581Z,12.90
2018-09-16T17:23:44.912Z,14.30
2018-09-16T17:26:13.600Z,12.40
2018-09-16T17:28:42.164Z,9.70
2018-09-16T17:31:10.806Z,9.33
2018-09-16T17:33:39.121Z,8.60
2018-09-16T17:36:07.639Z,9.03
2018-09-16T17:38:36.593Z,9.00
2018-09-16T17:41:05.194Z,8.80
2018-09-16T17:43:33.490Z,9.93
2018-09-16T17:46:02.050Z,8.65
2018-09-16T17:48:30.332Z,8.90
2018-09-16T17:50:58.747Z,8.50
2018-09-16T17:53:27.900Z,8.45
2018-09-16T17:55:56.509Z,9.10
2018-09-16T17:58:25.199Z,9.87
2018-09-16T18:00:53.758Z,8.70
2018-09-16T18:03:22.524Z,8.60
2018-09-16T18:05:51.117Z,7.87
2018-09-16T18:08:24.486Z,8.60
2018-09-16T18:10:53.653Z,9.83
2018-09-16T18:13:23.938Z,10.97
2018-09-16T18:16:01.279Z,11.08
2018-09-16T18:18:29.843Z,11.35
2018-09-16T18:20:58.200Z,11.10
2018-09-16T18:23:26.919Z,13.57
2018-09-16T18:25:55.736Z,15.23
2018-09-16T18:28:24.366Z,19.45
2018-09-16T18:30:52.864Z,22.57
2018-09-16T18:33:21.451Z,19.65
2018-09-16T18:35:49.932Z,20.03
2018-09-16T18:38:18.240Z,20.20
2018-09-16T18:40:46.993Z,17.03
2018-09-16T18:43:15.498Z,16.20
2018-09-16T18:45:44.095Z,15.60
2018-09-16T18:48:13.199Z,14.90
2018-09-16T18:50:42.500Z,15.10
2018-09-16T18:53:11.216Z,15.33
2018-09-16T18:55:39.528Z,14.93
2018-09-16T18:58:08.361Z,13.75
2018-09-16T19:00:37.317Z,13.27
2018-09-16T19:03:05.732Z,14.30
2018-09-16T19:08:14.926Z,13.53
2018-09-16T19:10:44.254Z,14.30
2018-09-16T19:13:13.124Z,12.20
2018-09-16T19:15:42.053Z,13.88
2018-09-16T19:18:10.367Z,12.20
2018-09-16T19:20:40.004Z,12.82
2018-09-16T19:23:13.455Z,11.60
2018-09-16T19:25:43.368Z,11.20
2018-09-16T19:28:12.115Z,11.50
2018-09-16T19:30:45.069Z,12.90
2018-09-16T19:33:13.655Z,12.60
2018-09-16T19:35:42.075Z,11.83
2018-09-16T19:38:10.935Z,11.80
2018-09-16T19:40:40.448Z,12.43
2018-09-16T19:43:09.228Z,12.03
2018-09-16T19:45:37.982Z,11.10
2018-09-16T19:48:06.833Z,12.70
2018-09-16T19:50:35.359Z,12.30
2018-09-16T19:53:04.579Z,11.70
2018-09-16T19:55:39.258Z,11.67
2018-09-16T19:58:08.787Z,11.60
2018-09-16T20:00:38.192Z,12.40
2018-09-16T20:03:07.281Z,11.97
2018-09-16T20:05:35.702Z,12.47
2018-09-16T20:08:04.140Z,12.00
2018-09-16T20:10:33.149Z,13.20
2018-09-16T20:13:03.098Z,12.97
2018-09-16T20:15:33.701Z,13.98
2018-09-16T20:18:02.093Z,13.57
2018-09-16T20:20:30.791Z,13.33
2018-09-16T20:25:35.411Z,14.70
2018-09-16T20:28:03.942Z,14.20
2018-09-16T20:30:32.432Z,14.10
2018-09-16T20:33:00.992Z,12.73
2018-09-16T20:35:29.547Z,13.55
2018-09-16T20:37:57.866Z,13.77
2018-09-16T20:40:26.481Z,13.98
2018-09-16T20:42:54.786Z,13.20
2018-09-16T20:45:23.537Z,13.10
2018-09-16T20:47:51.988Z,13.20
2018-09-16T20:50:20.300Z,14.40
2018-09-16T20:52:48.660Z,13.67
2018-09-16T20:55:17.284Z,12.87
2018-09-16T20:57:45.856Z,13.00
2018-09-16T21:00:14.379Z,11.20
2018-09-16T21:02:43.103Z,11.60
2018-09-16T21:05:11.391Z,11.00
2018-09-16T21:07:39.692Z,13.20
2018-09-16T21:10:08.098Z,13.60
2018-09-16T21:12:36.906Z,12.80
2018-09-16T21:15:05.378Z,13.03
2018-09-16T21:17:33.716Z,12.77
2018-09-16T21:20:02.829Z,16.87
2018-09-16T21:22:31.271Z,16.80
2018-09-16T21:24:59.871Z,18.48
2018-09-16T21:27:28.212Z,15.50
2018-09-16T21:29:56.528Z,13.10
2018-09-16T21:32:25.028Z,13.80
2018-09-16T21:34:53.452Z,13.70
2018-09-16T21:37:22.095Z,13.87
2018-09-16T21:39:50.661Z,13.45
2018-09-16T21:42:18.959Z,15.13
2018-09-16T21:44:47.586Z,14.67
2018-09-16T21:47:16.212Z,15.33
2018-09-16T21:49:44.876Z,16.57
2018-09-16T21:52:13.161Z,14.83
2018-09-16T21:54:41.935Z,17.00
2018-09-16T21:57:10.476Z,17.80
2018-09-16T21:59:38.779Z,18.30
2018-09-16T22:02:07.288Z,18.77
2018-09-16T22:04:35.614Z,18.97
2018-09-16T22:07:04.136Z,20.83
2018-09-16T22:09:32.871Z,21.17
2018-09-16T22:12:01.166Z,21.60
2018-09-16T22:14:29.628Z,19.73
2018-09-16T22:16:58.537Z,19.30
2018-09-16T22:19:26.816Z,20.37
2018-09-16T22:21:55.388Z,20.23
2018-09-16T22:24:23.870Z,19.90
2018-09-16T22:26:52.335Z,21.43
2018-09-16T22:29:20.941Z,20.60
2018-09-16T22:31:49.391Z,20.60
2018-09-16T22:34:17.975Z,21.95
2018-09-16T22:36:46.374Z,21.00
2018-09-16T22:39:14.936Z,21.93
2018-09-16T22:41:43.237Z,21.63
2018-09-16T22:44:11.809Z,23.07
2018-09-16T22:46:40.210Z,22.87
2018-09-16T22:49:08.518Z,20.73
2018-09-16T22:51:36.944Z,22.30
2018-09-16T22:54:05.600Z,21.93
2018-09-16T22:56:33.911Z,19.90
2018-09-16T22:59:02.208Z,20.87
2018-09-16T23:01:30.736Z,20.30
2018-09-16T23:03:59.360Z,21.23
2018-09-16T23:06:27.680Z,20.37
2018-09-16T23:09:01.247Z,20.63
2018-09-16T23:11:29.571Z,20.80
2018-09-16T23:13:58.356Z,22.27
2018-09-16T23:16:26.796Z,20.77
2018-09-16T23:18:55.353Z,22.57
2018-09-16T23:21:23.873Z,23.30
2018-09-16T23:23:52.459Z,22.55
2018-09-16T23:26:21.031Z,23.77
2018-09-16T23:28:50.040Z,23.00
2018-09-16T23:31:18.364Z,22.70
2018-09-16T23:33:46.782Z,22.73
2018-09-16T23:36:15.725Z,23.50
2018-09-16T23:38:44.425Z,25.00
2018-09-16T23:41:12.776Z,25.40
2018-09-16T23:43:41.287Z,23.20
2018-09-16T23:46:09.591Z,23.87
2018-09-16T23:48:38.157Z,22.37
2018-09-16T23:51:06.472Z,24.40
2018-09-16T23:53:34.770Z,22.80
2018-09-16T23:56:03.131Z,24.33
2018-09-16T23:58:31.477Z,25.93
